Hoegh Berlin — C6XQ4 — position and weather

sailwx.info

Track history (hours):
 
Tides and Currents Weather Stations Pressure Air Temp Water Temp Dewpoint Dewpoint Depression Visibility Wind Speed Wind Dir Waves Ship Positions

Hoegh Berlin

Last reported at 2016-Sep-19 23:32 UTC. Time now 2016-Sep-29 10:04 UTC.
Position N 31°22' E 032°20'.
Warning: this ship's position is 9 days out of date.

Length 228 m; draft 9.2 m.

Type: Cargo ship. MMSI: 311019100.

Date/timePositionNaut miles runAvg speedWind from/ knotsBaromVisibWave heightAir tempDewpointWater temp
2016-Sep-19 23:32N 31°22' E 032°20'0 0.0
2016-Sep-19 19:33N 31°22' E 032°20'0 0.0
2016-Sep-19 18:33N 31°22' E 032°20'12 5.7
2016-Sep-19 16:28N 31°32' E 032°12'3317.1
2016-Sep-19 14:33N 31°50' E 031°40'2017.9
2016-Sep-19 13:27N 31°56' E 031°18'1717.7
2016-Sep-19 12:28N 32°02' E 030°58'1817.8
2016-Sep-19 11:28N 32°07' E 030°39'3417.9
2016-Sep-19 09:33N 32°18' E 030°00'3717.9
2016-Sep-19 07:31N 32°30' E 029°19'1717.6
2016-Sep-19 06:33N 32°35' E 028°60'61817.4
2016-Sep-17 19:05N 35°36' E 017°06'14316.8
2016-Sep-17 10:33N 36°19' E 014°17'1716.8
2016-Sep-17 09:33N 36°24' E 013°57'2117.2
2016-Sep-17 08:21N 36°32' E 013°33'1517.4
2016-Sep-17 07:30N 36°37' E 013°16'48517.3
2016-Sep-16 03:28N 38°54' E 003°27'1617.5
2016-Sep-16 02:33N 38°58' E 003°07'3517.4
2016-Sep-16 00:33N 39°05' E 002°24'3517.3
2016-Sep-15 22:33N 39°13' E 001°40'1717.2
2016-Sep-15 21:33N 39°16' E 001°18'75 8.3
2016-Sep-15 12:32N 39°27' W 000°18'0 0.0
2016-Sep-15 11:23N 39°27' W 000°18'7611.2
2016-Sep-15 04:34N 40°05' E 001°08'1616.3
2016-Sep-15 03:33N 40°19' E 001°19'3216.3
2016-Sep-15 01:34N 40°46' E 001°43'29 2.3
2016-Sep-14 13:14N 41°08' E 002°07'913.9
2016-Sep-14 12:33N 40°60' E 002°00'2814.0
2016-Sep-14 10:33N 40°35' E 001°43'1414.1
2016-Sep-14 09:33N 40°22' E 001°35'1414.1
2016-Sep-14 08:33N 40°10' E 001°27'1514.7
2016-Sep-14 07:33N 39°57' E 001°18'39315.7
2016-Sep-13 06:34N 35°58' W 005°19'3818.6
2016-Sep-13 04:31N 35°54' W 006°05'  
2016-Sep-10 22:23N 39°55' W 025°19'12317.8
2016-Sep-10 15:29N 40°18' W 027°57'2517.4
2016-Sep-10 14:04N 40°22' W 028°30'917.3
2016-Sep-10 13:33N 40°24' W 028°41'1817.5
2016-Sep-10 12:32N 40°27' W 029°04'2017.4
2016-Sep-10 11:22N 40°31' W 029°30'1717.3
2016-Sep-10 10:22N 40°34' W 029°52'  
Track history (hours):
 
Tides and Currents Weather Stations Pressure Air Temp Water Temp Dewpoint Dewpoint Depression Visibility Wind Speed Wind Dir Waves Ship Positions

Hoegh Berlin

Last reported at 2016-Sep-19 23:32 UTC. Time now 2016-Sep-29 10:04 UTC.
Position N 31°22' E 032°20'.
Warning: this ship's position is 9 days out of date.

Length 228 m; draft 9.2 m.

Type: Cargo ship. MMSI: 311019100.

Date/timePositionNaut miles runAvg speedWind from/ knotsBaromVisibWave heightAir tempDewpointWater temp
2016-Sep-19 23:32N 31°22' E 032°20'0 0.0
2016-Sep-19 19:33N 31°22' E 032°20'0 0.0
2016-Sep-19 18:33N 31°22' E 032°20'12 5.7
2016-Sep-19 16:28N 31°32' E 032°12'3317.1
2016-Sep-19 14:33N 31°50' E 031°40'2017.9
2016-Sep-19 13:27N 31°56' E 031°18'1717.7
2016-Sep-19 12:28N 32°02' E 030°58'1817.8
2016-Sep-19 11:28N 32°07' E 030°39'3417.9
2016-Sep-19 09:33N 32°18' E 030°00'3717.9
2016-Sep-19 07:31N 32°30' E 029°19'1717.6
2016-Sep-19 06:33N 32°35' E 028°60'61817.4
2016-Sep-17 19:05N 35°36' E 017°06'14316.8
2016-Sep-17 10:33N 36°19' E 014°17'1716.8
2016-Sep-17 09:33N 36°24' E 013°57'2117.2
2016-Sep-17 08:21N 36°32' E 013°33'1517.4
2016-Sep-17 07:30N 36°37' E 013°16'48517.3
2016-Sep-16 03:28N 38°54' E 003°27'1617.5
2016-Sep-16 02:33N 38°58' E 003°07'3517.4
2016-Sep-16 00:33N 39°05' E 002°24'3517.3
2016-Sep-15 22:33N 39°13' E 001°40'1717.2
2016-Sep-15 21:33N 39°16' E 001°18'75 8.3
2016-Sep-15 12:32N 39°27' W 000°18'0 0.0
2016-Sep-15 11:23N 39°27' W 000°18'7611.2
2016-Sep-15 04:34N 40°05' E 001°08'1616.3
2016-Sep-15 03:33N 40°19' E 001°19'3216.3
2016-Sep-15 01:34N 40°46' E 001°43'29 2.3
2016-Sep-14 13:14N 41°08' E 002°07'913.9
2016-Sep-14 12:33N 40°60' E 002°00'2814.0
2016-Sep-14 10:33N 40°35' E 001°43'1414.1
2016-Sep-14 09:33N 40°22' E 001°35'1414.1
2016-Sep-14 08:33N 40°10' E 001°27'1514.7
2016-Sep-14 07:33N 39°57' E 001°18'39315.7
2016-Sep-13 06:34N 35°58' W 005°19'3818.6
2016-Sep-13 04:31N 35°54' W 006°05'  
2016-Sep-10 22:23N 39°55' W 025°19'12317.8
2016-Sep-10 15:29N 40°18' W 027°57'2517.4
2016-Sep-10 14:04N 40°22' W 028°30'917.3
2016-Sep-10 13:33N 40°24' W 028°41'1817.5
2016-Sep-10 12:32N 40°27' W 029°04'2017.4
2016-Sep-10 11:22N 40°31' W 029°30'1717.3
2016-Sep-10 10:22N 40°34' W 029°52'  

Dump ship's entire track history